sensor_id;sensor_type;location;lat;lon;timestamp;pressure;altitude;pressure_sealevel;temperature;humidity
47154;BME280;32907;41.412;2.164;2023-07-20T00:00:08;100361.66;;;30.49;47.10
47154;BME280;32907;41.412;2.164;2023-07-20T00:02:44;100369.94;;;30.49;47.02
47154;BME280;32907;41.412;2.164;2023-07-20T00:05:12;100349.69;;;30.45;46.80
47154;BME280;32907;41.412;2.164;2023-07-20T00:07:40;100346.06;;;30.41;46.86
47154;BME280;32907;41.412;2.164;2023-07-20T00:10:08;100348.94;;;30.48;47.01
47154;BME280;32907;41.412;2.164;2023-07-20T00:12:36;100345.38;;;30.47;46.78
47154;BME280;32907;41.412;2.164;2023-07-20T00:15:04;100344.59;;;30.47;46.56
47154;BME280;32907;41.412;2.164;2023-07-20T00:17:32;100319.75;;;30.27;46.67
47154;BME280;32907;41.412;2.164;2023-07-20T00:20:00;100340.22;;;30.46;46.09
47154;BME280;32907;41.412;2.164;2023-07-20T00:22:28;100328.31;;;30.42;46.25
47154;BME280;32907;41.412;2.164;2023-07-20T00:24:56;100281.06;;;30.08;46.49
47154;BME280;32907;41.412;2.164;2023-07-20T00:27:24;100298.63;;;30.19;46.22
47154;BME280;32907;41.412;2.164;2023-07-20T00:29:52;100323.50;;;30.39;46.20
47154;BME280;32907;41.412;2.164;2023-07-20T00:32:20;100297.22;;;30.29;45.96
47154;BME280;32907;41.412;2.164;2023-07-20T00:34:47;100311.56;;;30.34;45.78
47154;BME280;32907;41.412;2.164;2023-07-20T00:37:16;100315.66;;;30.41;46.05
47154;BME280;32907;41.412;2.164;2023-07-20T00:39:43;100282.47;;;30.21;46.20
47154;BME280;32907;41.412;2.164;2023-07-20T00:42:11;100283.81;;;30.31;46.05
47154;BME280;32907;41.412;2.164;2023-07-20T00:44:39;100307.03;;;30.46;45.73
47154;BME280;32907;41.412;2.164;2023-07-20T00:47:07;100279.78;;;30.25;45.55
47154;BME280;32907;41.412;2.164;2023-07-20T00:49:35;100266.31;;;30.23;45.96
47154;BME280;32907;41.412;2.164;2023-07-20T00:52:06;100291.78;;;30.32;45.67
47154;BME280;32907;41.412;2.164;2023-07-20T00:54:36;100295.09;;;30.42;45.57
47154;BME280;32907;41.412;2.164;2023-07-20T00:57:07;100266.31;;;30.23;45.46
47154;BME280;32907;41.412;2.164;2023-07-20T00:59:35;100295.09;;;30.42;45.33
47154;BME280;32907;41.412;2.164;2023-07-20T01:02:03;100269.66;;;30.32;45.71
47154;BME280;32907;41.412;2.164;2023-07-20T01:04:32;100240.81;;;30.11;45.55
47154;BME280;32907;41.412;2.164;2023-07-20T01:12:19;100295.53;;;30.44;46.40
47154;BME280;32907;41.412;2.164;2023-07-20T01:14:49;100288.78;;;30.41;46.67
47154;BME280;32907;41.412;2.164;2023-07-20T01:17:17;100271.13;;;30.26;46.32
47154;BME280;32907;41.412;2.164;2023-07-20T01:19:45;100285.47;;;30.32;46.63
47154;BME280;32907;41.412;2.164;2023-07-20T01:23:12;100306.19;;;30.42;46.94
47154;BME280;32907;41.412;2.164;2023-07-20T01:28:35;100281.00;;;30.27;46.64
47154;BME280;32907;41.412;2.164;2023-07-20T01:34:00;100285.09;;;30.33;46.92
47154;BME280;32907;41.412;2.164;2023-07-20T01:36:31;100294.22;;;30.38;46.67
47154;BME280;32907;41.412;2.164;2023-07-20T01:39:00;100285.94;;;30.38;46.92
47154;BME280;32907;41.412;2.164;2023-07-20T01:41:32;100289.50;;;30.38;46.57
47154;BME280;32907;41.412;2.164;2023-07-20T01:44:00;100279.22;;;30.39;46.77
47154;BME280;32907;41.412;2.164;2023-07-20T01:46:31;100262.06;;;30.29;46.45
47154;BME280;32907;41.412;2.164;2023-07-20T01:48:59;100259.38;;;30.33;46.54
47154;BME280;32907;41.412;2.164;2023-07-20T01:51:27;100274.06;;;30.37;46.33
47154;BME280;32907;41.412;2.164;2023-07-20T01:53:57;100254.09;;;30.24;46.40
47154;BME280;32907;41.412;2.164;2023-07-20T01:56:27;100271.53;;;30.28;45.76
47154;BME280;32907;41.412;2.164;2023-07-20T01:58:55;100254.03;;;30.21;45.47
47154;BME280;32907;41.412;2.164;2023-07-20T02:01:23;100271.97;;;30.30;45.61
47154;BME280;32907;41.412;2.164;2023-07-20T02:03:50;100268.72;;;30.25;45.68
47154;BME280;32907;41.412;2.164;2023-07-20T02:06:19;100203.25;;;29.90;45.86
47154;BME280;32907;41.412;2.164;2023-07-20T02:08:48;100235.31;;;30.14;46.43
47154;BME280;32907;41.412;2.164;2023-07-20T02:11:16;100217.72;;;30.03;46.63
47154;BME280;32907;41.412;2.164;2023-07-20T02:13:44;100230.53;;;30.11;46.82
47154;BME280;32907;41.412;2.164;2023-07-20T02:16:13;100236.56;;;30.17;47.02
47154;BME280;32907;41.412;2.164;2023-07-20T02:18:41;100213.34;;;30.02;47.13
47154;BME280;32907;41.412;2.164;2023-07-20T02:21:09;100228.03;;;30.06;46.79
47154;BME280;32907;41.412;2.164;2023-07-20T02:23:37;100229.75;;;30.11;47.00
47154;BME280;32907;41.412;2.164;2023-07-20T02:26:05;100240.47;;;30.16;47.12
47154;BME280;32907;41.412;2.164;2023-07-20T02:28:32;100247.25;;;30.18;46.90
47154;BME280;32907;41.412;2.164;2023-07-20T02:31:00;100254.44;;;30.23;47.24
47154;BME280;32907;41.412;2.164;2023-07-20T02:33:28;100252.03;;;30.21;47.49
47154;BME280;32907;41.412;2.164;2023-07-20T02:35:56;100187.31;;;29.84;47.49
47154;BME280;32907;41.412;2.164;2023-07-20T02:38:24;100227.22;;;30.05;47.05
47154;BME280;32907;41.412;2.164;2023-07-20T02:40:52;100256.41;;;30.22;47.59
47154;BME280;32907;41.412;2.164;2023-07-20T02:43:20;100258.38;;;30.22;47.72
47154;BME280;32907;41.412;2.164;2023-07-20T02:45:48;100244.63;;;30.06;47.44
47154;BME280;32907;41.412;2.164;2023-07-20T02:48:16;100237.50;;;30.05;47.43
47154;BME280;32907;41.412;2.164;2023-07-20T02:50:44;100260.34;;;30.21;47.68
47154;BME280;32907;41.412;2.164;2023-07-20T02:53:11;100233.94;;;30.04;47.76
47154;BME280;32907;41.412;2.164;2023-07-20T02:55:39;100209.56;;;29.91;47.68
47154;BME280;32907;41.412;2.164;2023-07-20T02:58:07;100234.06;;;30.08;47.70
47154;BME280;32907;41.412;2.164;2023-07-20T03:00:35;100239.84;;;30.03;48.10
47154;BME280;32907;41.412;2.164;2023-07-20T03:03:03;100261.88;;;30.19;47.92
47154;BME280;32907;41.412;2.164;2023-07-20T03:05:40;100235.97;;;30.07;47.73
47154;BME280;32907;41.412;2.164;2023-07-20T03:08:09;100251.53;;;30.16;48.03
47154;BME280;32907;41.412;2.164;2023-07-20T03:10:40;100241.47;;;30.07;47.78
47154;BME280;32907;41.412;2.164;2023-07-20T03:13:08;100239.25;;;30.13;47.48
47154;BME280;32907;41.412;2.164;2023-07-20T03:15:36;100244.78;;;30.13;47.71
47154;BME280;32907;41.412;2.164;2023-07-20T03:18:04;100252.41;;;30.20;47.97
47154;BME280;32907;41.412;2.164;2023-07-20T03:20:32;100221.22;;;30.00;48.05
47154;BME280;32907;41.412;2.164;2023-07-20T03:23:00;100225.63;;;30.04;47.97
47154;BME280;32907;41.412;2.164;2023-07-20T03:25:28;100246.50;;;30.21;47.65
47154;BME280;32907;41.412;2.164;2023-07-20T03:27:56;100248.91;;;30.23;48.18
47154;BME280;32907;41.412;2.164;2023-07-20T03:30:23;100210.22;;;30.03;47.75
47154;BME280;32907;41.412;2.164;2023-07-20T03:32:52;100237.78;;;30.19;48.24
47154;BME280;32907;41.412;2.164;2023-07-20T03:35:19;100226.59;;;30.12;48.26
47154;BME280;32907;41.412;2.164;2023-07-20T03:37:47;100210.16;;;30.00;48.54
47154;BME280;32907;41.412;2.164;2023-07-20T03:40:15;100239.34;;;30.17;48.49
47154;BME280;32907;41.412;2.164;2023-07-20T03:42:45;100218.25;;;30.08;48.48
47154;BME280;32907;41.412;2.164;2023-07-20T03:45:13;100210.81;;;30.13;48.53
47154;BME280;32907;41.412;2.164;2023-07-20T03:47:41;100213.94;;;30.11;48.61
47154;BME280;32907;41.412;2.164;2023-07-20T03:50:09;100242.66;;;30.26;48.36
47154;BME280;32907;41.412;2.164;2023-07-20T03:52:37;100189.19;;;29.99;48.48
47154;BME280;32907;41.412;2.164;2023-07-20T03:55:06;100212.47;;;30.17;48.90
47154;BME280;32907;41.412;2.164;2023-07-20T03:57:34;100195.34;;;30.08;48.70
47154;BME280;32907;41.412;2.164;2023-07-20T04:00:02;100208.97;;;30.20;48.54
47154;BME280;32907;41.412;2.164;2023-07-20T04:02:38;100225.28;;;30.25;49.12
47154;BME280;32907;41.412;2.164;2023-07-20T04:05:06;100215.66;;;30.19;48.79
47154;BME280;32907;41.412;2.164;2023-07-20T04:07:34;100206.50;;;30.15;49.04
47154;BME280;32907;41.412;2.164;2023-07-20T04:10:02;100200.69;;;30.20;48.87
47154;BME280;32907;41.412;2.164;2023-07-20T04:12:30;100201.47;;;30.21;49.35
47154;BME280;32907;41.412;2.164;2023-07-20T04:14:58;100205.41;;;30.20;49.33
47154;BME280;32907;41.412;2.164;2023-07-20T04:17:27;100215.53;;;30.12;49.15
47154;BME280;32907;41.412;2.164;2023-07-20T04:19:55;100220.47;;;30.22;49.55
47154;BME280;32907;41.412;2.164;2023-07-20T04:22:23;100204.25;;;30.01;49.70
47154;BME280;32907;41.412;2.164;2023-07-20T04:24:51;100237.00;;;30.19;49.75
47154;BME280;32907;41.412;2.164;2023-07-20T04:27:19;100227.34;;;30.09;49.36
47154;BME280;32907;41.412;2.164;2023-07-20T04:29:47;100229.19;;;30.05;49.65
47154;BME280;32907;41.412;2.164;2023-07-20T04:32:15;100244.13;;;30.20;49.83
47154;BME280;32907;41.412;2.164;2023-07-20T04:34:44;100236.13;;;30.15;49.47
47154;BME280;32907;41.412;2.164;2023-07-20T04:37:12;100214.03;;;29.95;49.75
47154;BME280;32907;41.412;2.164;2023-07-20T04:39:40;100261.53;;;30.20;49.90
47154;BME280;32907;41.412;2.164;2023-07-20T04:42:10;100256.00;;;30.20;49.54
47154;BME280;32907;41.412;2.164;2023-07-20T04:44:38;100262.25;;;30.17;49.94
47154;BME280;32907;41.412;2.164;2023-07-20T04:47:08;100227.91;;;29.99;49.87
47154;BME280;32907;41.412;2.164;2023-07-20T04:49:38;100242.34;;;30.08;49.97
47154;BME280;32907;41.412;2.164;2023-07-20T04:52:06;100240.25;;;30.05;49.90
47154;BME280;32907;41.412;2.164;2023-07-20T04:54:35;100260.44;;;30.25;49.57
47154;BME280;32907;41.412;2.164;2023-07-20T04:57:11;100267.94;;;30.24;49.56
47154;BME280;32907;41.412;2.164;2023-07-20T04:59:44;100267.94;;;30.24;49.50
47154;BME280;32907;41.412;2.164;2023-07-20T05:02:11;100230.66;;;29.99;49.76
47154;BME280;32907;41.412;2.164;2023-07-20T05:04:39;100246.59;;;30.05;49.68
47154;BME280;32907;41.412;2.164;2023-07-20T05:07:07;100235.41;;;29.98;50.08
47154;BME280;32907;41.412;2.164;2023-07-20T05:09:35;100263.09;;;30.21;49.85
47154;BME280;32907;41.412;2.164;2023-07-20T05:12:04;100245.53;;;30.10;49.95
47154;BME280;32907;41.412;2.164;2023-07-20T05:14:32;100270.69;;;30.24;49.65
47154;BME280;32907;41.412;2.164;2023-07-20T05:17:00;100281.75;;;30.24;50.26
47154;BME280;32907;41.412;2.164;2023-07-20T05:19:29;100274.78;;;30.11;50.27
47154;BME280;32907;41.412;2.164;2023-07-20T05:21:57;100264.34;;;30.04;50.24
47154;BME280;32907;41.412;2.164;2023-07-20T05:24:24;100270.03;;;30.12;50.08
47154;BME280;32907;41.412;2.164;2023-07-20T05:26:52;100265.94;;;30.05;50.18
47154;BME280;32907;41.412;2.164;2023-07-20T05:29:21;100251.03;;;29.91;50.07
47154;BME280;32907;41.412;2.164;2023-07-20T05:31:49;100286.91;;;30.06;48.92
47154;BME280;32907;41.412;2.164;2023-07-20T05:34:18;100283.44;;;30.10;47.72
47154;BME280;32907;41.412;2.164;2023-07-20T05:36:45;100258.91;;;29.89;46.54
47154;BME280;32907;41.412;2.164;2023-07-20T05:39:19;100272.59;;;30.01;47.35
47154;BME280;32907;41.412;2.164;2023-07-20T05:41:47;100291.16;;;30.00;46.33
47154;BME280;32907;41.412;2.164;2023-07-20T05:44:15;100261.53;;;29.62;48.13
47154;BME280;32907;41.412;2.164;2023-07-20T05:46:43;100229.28;;;29.31;48.64
47154;BME280;32907;41.412;2.164;2023-07-20T05:49:25;100274.22;;;29.47;49.14
47154;BME280;32907;41.412;2.164;2023-07-20T05:51:53;100277.44;;;29.49;49.00
47154;BME280;32907;41.412;2.164;2023-07-20T05:54:23;100289.56;;;29.45;49.96
47154;BME280;32907;41.412;2.164;2023-07-20T05:56:52;100268.16;;;29.22;50.21
47154;BME280;32907;41.412;2.164;2023-07-20T05:59:20;100283.13;;;29.21;50.31
47154;BME280;32907;41.412;2.164;2023-07-20T06:01:51;100286.31;;;29.23;50.51
47154;BME280;32907;41.412;2.164;2023-07-20T06:04:19;100271.38;;;29.09;50.97
47154;BME280;32907;41.412;2.164;2023-07-20T06:06:47;100285.34;;;29.16;50.59
47154;BME280;32907;41.412;2.164;2023-07-20T06:09:18;100285.28;;;29.12;50.62
47154;BME280;32907;41.412;2.164;2023-07-20T06:11:46;100273.97;;;29.02;50.75
47154;BME280;32907;41.412;2.164;2023-07-20T06:14:14;100283.59;;;29.08;51.13
47154;BME280;32907;41.412;2.164;2023-07-20T06:16:42;100283.78;;;28.99;50.86
47154;BME280;32907;41.412;2.164;2023-07-20T06:19:10;100273.00;;;28.94;50.86
47154;BME280;32907;41.412;2.164;2023-07-20T06:21:39;100304.69;;;29.16;51.27
47154;BME280;32907;41.412;2.164;2023-07-20T06:24:09;100277.66;;;28.90;50.90
47154;BME280;32907;41.412;2.164;2023-07-20T06:26:37;100274.97;;;28.93;51.09
47154;BME280;32907;41.412;2.164;2023-07-20T06:29:08;100290.91;;;29.00;51.18
47154;BME280;32907;41.412;2.164;2023-07-20T06:31:39;100269.81;;;28.92;51.27
47154;BME280;32907;41.412;2.164;2023-07-20T06:34:07;100260.09;;;28.82;51.44
47154;BME280;32907;41.412;2.164;2023-07-20T06:36:35;100282.06;;;28.94;51.49
47154;BME280;32907;41.412;2.164;2023-07-20T06:39:05;100280.28;;;28.86;51.58
47154;BME280;32907;41.412;2.164;2023-07-20T06:41:36;100309.97;;;29.05;51.66
47154;BME280;32907;41.412;2.164;2023-07-20T06:44:07;100209.38;;;28.39;51.15
47154;BME280;32907;41.412;2.164;2023-07-20T06:46:36;100246.31;;;28.66;51.34
47154;BME280;32907;41.412;2.164;2023-07-20T06:49:08;100093.03;;;27.58;51.41
47154;BME280;32907;41.412;2.164;2023-07-20T06:51:42;100238.28;;;28.61;51.58
47154;BME280;32907;41.412;2.164;2023-07-20T06:54:12;100150.97;;;27.90;51.57
47154;BME280;32907;41.412;2.164;2023-07-20T06:56:53;100237.84;;;28.59;51.66
47154;BME280;32907;41.412;2.164;2023-07-20T06:59:24;100312.19;;;29.00;51.34
47154;BME280;32907;41.412;2.164;2023-07-20T07:02:14;100260.34;;;28.61;51.00
47154;BME280;32907;41.412;2.164;2023-07-20T07:04:45;100199.72;;;28.18;51.08
47154;BME280;32907;41.412;2.164;2023-07-20T07:07:25;100258.38;;;28.62;51.04
47154;BME280;32907;41.412;2.164;2023-07-20T07:10:01;100350.09;;;29.18;50.90
47154;BME280;32907;41.412;2.164;2023-07-20T07:12:44;100120.75;;;27.78;50.84
47154;BME280;32907;41.412;2.164;2023-07-20T07:15:28;100348.50;;;29.17;51.27
47154;BME280;32907;41.412;2.164;2023-07-20T07:18:03;100199.19;;;28.28;51.06
47154;BME280;32907;41.412;2.164;2023-07-20T07:21:06;100118.97;;;27.85;50.79
47154;BME280;32907;41.412;2.164;2023-07-20T07:23:58;100240.25;;;28.61;50.70
47154;BME280;32907;41.412;2.164;2023-07-20T07:26:30;100124.13;;;27.87;50.52
47154;BME280;32907;41.412;2.164;2023-07-20T07:29:07;100258.84;;;28.80;50.16
47154;BME280;32907;41.412;2.164;2023-07-20T07:32:07;100253.78;;;28.82;50.42
47154;BME280;32907;41.412;2.164;2023-07-20T07:34:40;100189.72;;;28.41;50.17
47154;BME280;32907;41.412;2.164;2023-07-20T07:37:11;100298.91;;;29.05;50.07
47154;BME280;32907;41.412;2.164;2023-07-20T07:39:56;100204.56;;;28.52;50.07
47154;BME280;32907;41.412;2.164;2023-07-20T07:42:29;100121.28;;;27.99;50.01
47154;BME280;32907;41.412;2.164;2023-07-20T07:45:00;100105.66;;;28.03;50.01
47154;BME280;32907;41.412;2.164;2023-07-20T07:47:57;100258.66;;;29.04;50.29
47154;BME280;32907;41.412;2.164;2023-07-20T07:50:29;100191.13;;;28.66;50.12
47154;BME280;32907;41.412;2.164;2023-07-20T07:53:23;100277.06;;;29.16;49.97
47154;BME280;32907;41.412;2.164;2023-07-20T07:55:53;100178.50;;;28.65;49.77
47154;BME280;32907;41.412;2.164;2023-07-20T07:58:21;100306.75;;;29.54;49.67
47154;BME280;32907;41.412;2.164;2023-07-20T08:00:49;100297.38;;;29.59;49.81
47154;BME280;32907;41.412;2.164;2023-07-20T08:03:17;100323.78;;;29.75;49.73
47154;BME280;32907;41.412;2.164;2023-07-20T08:05:46;100282.06;;;29.61;50.15
47154;BME280;32907;41.412;2.164;2023-07-20T08:08:14;100315.22;;;29.80;49.80
47154;BME280;32907;41.412;2.164;2023-07-20T08:10:42;100322.91;;;29.91;50.45
47154;BME280;32907;41.412;2.164;2023-07-20T08:13:09;100324.50;;;29.92;50.71
47154;BME280;32907;41.412;2.164;2023-07-20T08:15:37;100316.31;;;29.95;50.88
47154;BME280;32907;41.412;2.164;2023-07-20T08:18:05;100302.34;;;29.88;51.01
47154;BME280;32907;41.412;2.164;2023-07-20T08:20:34;100281.63;;;29.78;51.21
47154;BME280;32907;41.412;2.164;2023-07-20T08:23:03;100316.25;;;30.11;51.29
47154;BME280;32907;41.412;2.164;2023-07-20T08:25:31;100305.19;;;30.11;50.88
47154;BME280;32907;41.412;2.164;2023-07-20T08:27:59;100298.06;;;30.10;51.21
47154;BME280;32907;41.412;2.164;2023-07-20T08:30:39;100318.00;;;30.19;51.02
47154;BME280;32907;41.412;2.164;2023-07-20T08:33:08;100301.25;;;30.12;50.94
47154;BME280;32907;41.412;2.164;2023-07-20T08:35:37;100319.38;;;30.29;51.08
47154;BME280;32907;41.412;2.164;2023-07-20T08:38:05;100323.31;;;30.28;50.71
47154;BME280;32907;41.412;2.164;2023-07-20T08:40:35;100323.31;;;30.28;50.65
47154;BME280;32907;41.412;2.164;2023-07-20T08:43:06;100323.34;;;30.31;50.62
47154;BME280;32907;41.412;2.164;2023-07-20T08:45:36;100282.16;;;30.07;50.63
47154;BME280;32907;41.412;2.164;2023-07-20T08:48:06;100289.53;;;30.19;50.80
47154;BME280;32907;41.412;2.164;2023-07-20T08:50:35;100329.03;;;30.39;50.54
47154;BME280;32907;41.412;2.164;2023-07-20T08:53:03;100318.69;;;30.35;50.18
47154;BME280;32907;41.412;2.164;2023-07-20T08:55:31;100318.69;;;30.35;49.52
47154;BME280;32907;41.412;2.164;2023-07-20T08:58:00;100318.75;;;30.39;48.79
47154;BME280;32907;41.412;2.164;2023-07-20T09:00:28;100285.97;;;30.18;48.28
47154;BME280;32907;41.412;2.164;2023-07-20T09:03:01;100298.81;;;30.30;48.01
47154;BME280;32907;41.412;2.164;2023-07-20T09:05:31;100298.16;;;30.36;48.14
47154;BME280;32907;41.412;2.164;2023-07-20T09:08:01;100306.91;;;30.39;48.35
47154;BME280;32907;41.412;2.164;2023-07-20T09:10:31;100300.19;;;30.40;47.74
47154;BME280;32907;41.412;2.164;2023-07-20T09:12:59;100252.84;;;30.22;47.98
47154;BME280;32907;41.412;2.164;2023-07-20T09:15:28;100284.16;;;30.49;49.51
47154;BME280;32907;41.412;2.164;2023-07-20T09:18:01;100249.91;;;30.34;48.22
47154;BME280;32907;41.412;2.164;2023-07-20T09:20:32;100268.25;;;30.42;48.00
47154;BME280;32907;41.412;2.164;2023-07-20T09:23:04;100320.59;;;30.74;48.15
47154;BME280;32907;41.412;2.164;2023-07-20T09:25:36;100294.13;;;30.53;47.80
47154;BME280;32907;41.412;2.164;2023-07-20T09:28:04;100322.19;;;30.75;47.93
47154;BME280;32907;41.412;2.164;2023-07-20T09:30:32;100295.00;;;30.57;48.32
47154;BME280;32907;41.412;2.164;2023-07-20T09:33:00;100290.69;;;30.60;48.12
47154;BME280;32907;41.412;2.164;2023-07-20T09:35:29;100282.69;;;30.55;48.07
47154;BME280;32907;41.412;2.164;2023-07-20T09:38:09;100261.16;;;30.45;48.21
47154;BME280;32907;41.412;2.164;2023-07-20T09:40:41;100279.22;;;30.39;47.62
47154;BME280;32907;41.412;2.164;2023-07-20T09:43:15;100291.03;;;30.35;47.00
47154;BME280;32907;41.412;2.164;2023-07-20T09:45:46;100303.84;;;30.44;47.19
47154;BME280;32907;41.412;2.164;2023-07-20T09:48:17;100230.41;;;29.85;46.27
47154;BME280;32907;41.412;2.164;2023-07-20T09:50:53;100311.16;;;30.32;45.15
47154;BME280;32907;41.412;2.164;2023-07-20T09:53:21;100252.06;;;29.83;45.90
47154;BME280;32907;41.412;2.164;2023-07-20T09:55:52;100278.59;;;30.06;47.63
47154;BME280;32907;41.412;2.164;2023-07-20T09:58:21;100306.91;;;30.39;48.31
47154;BME280;32907;41.412;2.164;2023-07-20T10:00:51;100322.44;;;30.47;48.21
47154;BME280;32907;41.412;2.164;2023-07-20T10:03:22;100319.03;;;30.53;47.93
47154;BME280;32907;41.412;2.164;2023-07-20T10:06:15;100322.44;;;30.66;48.09
47154;BME280;32907;41.412;2.164;2023-07-20T10:08:47;100334.38;;;30.70;46.79
47154;BME280;32907;41.412;2.164;2023-07-20T10:11:22;100330.44;;;30.71;48.30
47154;BME280;32907;41.412;2.164;2023-07-20T10:13:53;100301.78;;;30.63;48.14
47154;BME280;32907;41.412;2.164;2023-07-20T10:16:29;100307.97;;;30.76;48.35
47154;BME280;32907;41.412;2.164;2023-07-20T10:21:31;100319.72;;;30.92;46.94
47154;BME280;32907;41.412;2.164;2023-07-20T10:24:04;100311.00;;;30.90;46.06
47154;BME280;32907;41.412;2.164;2023-07-20T10:26:34;100280.72;;;30.78;46.83
47154;BME280;32907;41.412;2.164;2023-07-20T10:29:05;100315.09;;;31.00;47.13
47154;BME280;32907;41.412;2.164;2023-07-20T10:31:35;100307.16;;;30.99;46.82
47154;BME280;32907;41.412;2.164;2023-07-20T10:34:04;100284.41;;;30.86;46.38
47154;BME280;32907;41.412;2.164;2023-07-20T10:36:44;100251.28;;;30.67;47.25
47154;BME280;32907;41.412;2.164;2023-07-20T10:39:27;100309.53;;;30.97;46.75
47154;BME280;32907;41.412;2.164;2023-07-20T10:42:03;100300.41;;;30.96;45.73
47154;BME280;32907;41.412;2.164;2023-07-20T10:44:32;100311.22;;;31.05;45.50
47154;BME280;32907;41.412;2.164;2023-07-20T10:47:02;100309.31;;;31.09;45.25
47154;BME280;32907;41.412;2.164;2023-07-20T10:49:34;100263.50;;;30.88;44.80
47154;BME280;32907;41.412;2.164;2023-07-20T10:52:04;100261.56;;;30.92;45.41
47154;BME280;32907;41.412;2.164;2023-07-20T10:54:34;100312.31;;;31.23;45.23
47154;BME280;32907;41.412;2.164;2023-07-20T10:57:23;100305.47;;;31.17;44.69
47154;BME280;32907;41.412;2.164;2023-07-20T10:59:52;100306.03;;;31.26;43.53
47154;BME280;32907;41.412;2.164;2023-07-20T11:02:20;100272.53;;;31.12;43.36
47154;BME280;32907;41.412;2.164;2023-07-20T11:04:48;100306.03;;;31.26;44.03
47154;BME280;32907;41.412;2.164;2023-07-20T11:07:36;100313.59;;;31.29;41.45
47154;BME280;32907;41.412;2.164;2023-07-20T11:10:15;100313.22;;;31.31;42.39
47154;BME280;32907;41.412;2.164;2023-07-20T11:13:19;100300.22;;;31.35;43.29
47154;BME280;32907;41.412;2.164;2023-07-20T11:16:02;100311.34;;;31.38;41.94
47154;BME280;32907;41.412;2.164;2023-07-20T11:18:33;100295.44;;;31.32;41.92
47154;BME280;32907;41.412;2.164;2023-07-20T11:21:08;100307.91;;;31.45;41.95
47154;BME280;32907;41.412;2.164;2023-07-20T11:23:38;100253.16;;;31.12;41.61
47154;BME280;32907;41.412;2.164;2023-07-20T11:26:06;100299.19;;;31.46;41.63
47154;BME280;32907;41.412;2.164;2023-07-20T11:28:34;100295.25;;;31.48;41.66
47154;BME280;32907;41.412;2.164;2023-07-20T11:31:03;100300.38;;;31.45;41.99
47154;BME280;32907;41.412;2.164;2023-07-20T11:33:31;100302.78;;;31.47;42.53
47154;BME280;32907;41.412;2.164;2023-07-20T11:35:59;100287.34;;;31.50;42.05
47154;BME280;32907;41.412;2.164;2023-07-20T11:38:27;100261.06;;;31.36;42.38
47154;BME280;32907;41.412;2.164;2023-07-20T11:41:02;100260.31;;;31.39;42.93
47154;BME280;32907;41.412;2.164;2023-07-20T11:43:31;100220.78;;;31.16;42.61
47154;BME280;32907;41.412;2.164;2023-07-20T11:45:59;100130.69;;;30.66;42.95
47154;BME280;32907;41.412;2.164;2023-07-20T11:48:28;100250.41;;;31.38;42.30
47154;BME280;32907;41.412;2.164;2023-07-20T11:50:57;100246.97;;;31.49;41.80
47154;BME280;32907;41.412;2.164;2023-07-20T11:53:25;100249.34;;;31.50;39.87
47154;BME280;32907;41.412;2.164;2023-07-20T11:55:54;100230.31;;;31.45;39.87
47154;BME280;32907;41.412;2.164;2023-07-20T11:58:22;100239.81;;;31.48;39.40
47154;BME280;32907;41.412;2.164;2023-07-20T12:00:51;100249.41;;;31.54;39.47
47154;BME280;32907;41.412;2.164;2023-07-20T12:03:20;100214.03;;;31.43;38.93
47154;BME280;32907;41.412;2.164;2023-07-20T12:05:48;100239.56;;;31.60;39.33
47154;BME280;32907;41.412;2.164;2023-07-20T12:08:28;100210.63;;;31.54;39.88
47154;BME280;32907;41.412;2.164;2023-07-20T12:10:56;100195.16;;;31.53;39.40
47154;BME280;32907;41.412;2.164;2023-07-20T12:13:42;100189.69;;;31.60;38.79
47154;BME280;32907;41.412;2.164;2023-07-20T12:16:13;100214.78;;;31.74;39.01
47154;BME280;32907;41.412;2.164;2023-07-20T12:18:43;100184.09;;;31.56;38.28
47154;BME280;32907;41.412;2.164;2023-07-20T12:21:11;100212.31;;;31.65;38.56
47154;BME280;32907;41.412;2.164;2023-07-20T12:23:39;100159.06;;;31.45;38.64
47154;BME280;32907;41.412;2.164;2023-07-20T12:26:09;100210.53;;;31.77;38.66
47154;BME280;32907;41.412;2.164;2023-07-20T12:28:41;100193.78;;;31.69;38.47
47154;BME280;32907;41.412;2.164;2023-07-20T12:31:09;100200.56;;;31.75;39.21
47154;BME280;32907;41.412;2.164;2023-07-20T12:33:39;100208.94;;;31.79;39.28
47154;BME280;32907;41.412;2.164;2023-07-20T12:36:09;100191.78;;;31.70;39.71
47154;BME280;32907;41.412;2.164;2023-07-20T12:38:37;100207.66;;;31.73;39.27
47154;BME280;32907;41.412;2.164;2023-07-20T12:41:04;100216.88;;;31.81;39.70
47154;BME280;32907;41.412;2.164;2023-07-20T12:43:32;100163.34;;;31.43;40.88
47154;BME280;32907;41.412;2.164;2023-07-20T12:46:01;100208.44;;;31.73;41.81
47154;BME280;32907;41.412;2.164;2023-07-20T12:48:29;100213.19;;;31.69;41.86
47154;BME280;32907;41.412;2.164;2023-07-20T12:50:57;100185.63;;;31.50;41.23
47154;BME280;32907;41.412;2.164;2023-07-20T12:53:24;100214.69;;;31.63;41.43
47154;BME280;32907;41.412;2.164;2023-07-20T12:55:52;100178.88;;;31.48;41.61
47154;BME280;32907;41.412;2.164;2023-07-20T12:58:20;100201.50;;;31.53;41.14
47154;BME280;32907;41.412;2.164;2023-07-20T13:00:48;100207.88;;;31.57;41.58
47154;BME280;32907;41.412;2.164;2023-07-20T13:03:17;100189.28;;;31.58;40.94
47154;BME280;32907;41.412;2.164;2023-07-20T13:05:49;100201.94;;;31.59;40.76
47154;BME280;32907;41.412;2.164;2023-07-20T13:08:21;100175.31;;;31.51;41.47
47154;BME280;32907;41.412;2.164;2023-07-20T13:10:52;100186.03;;;31.52;41.26
47154;BME280;32907;41.412;2.164;2023-07-20T13:13:20;100161.06;;;31.49;40.49
47154;BME280;32907;41.412;2.164;2023-07-20T13:15:48;100178.16;;;31.54;40.31
47154;BME280;32907;41.412;2.164;2023-07-20T13:18:16;100167.06;;;31.54;40.62
47154;BME280;32907;41.412;2.164;2023-07-20T13:20:44;100172.63;;;31.58;40.41